New Jersey Responder — WBO8578 — position and weather

sailwx.info

Track history (hours):
 
Tides and Currents Weather Stations Pressure Air Temp Water Temp Dewpoint Dewpoint Depression Visibility Wind Speed Wind Dir Waves Ship Positions

New Jersey Responder

Owner: MARINE SPILL RESPONSE CORP, HERNDON, VA. More information available from US FCC via Universal Licensing System and Coast Guard Vessel Documentation Center.

Last reported at 2015-Apr-21 03:22 UTC. Time now 2015-Apr-21 11:35 UTC.
Position N 40°32' W 074°15'.

; draft 4 m.

Type: Pollution control. MMSI: 366594000.

Date/timePositionNaut miles runAvg speedWind from/ knotsBaromVisibWave heightAir tempDewpointWater temp
2015-Apr-21 03:22N 40°32' W 074°15'0 0.0
2015-Apr-21 02:13N 40°32' W 074°15'0 0.0
2015-Apr-21 00:13N 40°32' W 074°15'0 0.0
2015-Apr-20 20:12N 40°32' W 074°15'0 0.0
2015-Apr-20 09:33N 40°32' W 074°15'0 0.0
2015-Apr-20 04:30N 40°32' W 074°15'0 0.0
2015-Apr-20 03:06N 40°32' W 074°15'0 0.0
2015-Apr-19 23:24N 40°32' W 074°15'0 0.0
2015-Apr-19 21:06N 40°32' W 074°15'0 0.0
2015-Apr-18 02:15N 40°32' W 074°15'0 0.0
2015-Apr-18 01:30N 40°32' W 074°15'0 0.0
2015-Apr-16 19:24N 40°32' W 074°15'0 0.0
2015-Apr-16 18:31N 40°32' W 074°15'4 3.6
2015-Apr-16 17:27N 40°35' W 074°12'6 6.3
2015-Apr-16 16:33N 40°39' W 074°07'9 9.2
2015-Apr-16 15:33N 40°47' W 074°00'1 1.1
2015-Apr-16 14:33N 40°45' W 074°01'9 8.6
2015-Apr-16 13:32N 40°39' W 074°08'9 0.9
2015-Apr-16 04:05N 40°32' W 074°15'0 0.0
2015-Apr-14 19:07N 40°32' W 074°15'0 0.0
2015-Apr-14 18:31N 40°32' W 074°15'0 0.0
2015-Apr-14 17:25N 40°32' W 074°15'0 0.0
2015-Apr-14 16:31N 40°32' W 074°15'0 0.0
2015-Apr-14 15:31N 40°32' W 074°15'0 0.0
2015-Apr-14 10:13N 40°32' W 074°15'0 0.0
2015-Apr-14 08:22N 40°32' W 074°15'0 0.0
2015-Apr-14 07:13N 40°32' W 074°15'0 0.0
2015-Apr-14 06:25N 40°32' W 074°15'0 0.0
2015-Apr-14 05:31N 40°32' W 074°15'0 0.0
2015-Apr-14 04:10N 40°32' W 074°15'0 0.0
2015-Apr-14 03:28N 40°32' W 074°15'0 0.0
2015-Apr-14 02:32N 40°32' W 074°15'0 0.0
2015-Apr-14 01:13N 40°32' W 074°15'0 0.0
2015-Apr-14 00:31N 40°32' W 074°15'0 0.0
2015-Apr-13 12:22N 40°32' W 074°15'0 0.0
2015-Apr-12 17:28N 40°32' W 074°15'0 0.0
2015-Apr-12 05:19N 40°32' W 074°15'0 0.0
2015-Apr-11 16:25N 40°32' W 074°15'0 0.0
2015-Apr-11 03:22N 40°32' W 074°15'  
Track history (hours):
 
Tides and Currents Weather Stations Pressure Air Temp Water Temp Dewpoint Dewpoint Depression Visibility Wind Speed Wind Dir Waves Ship Positions

New Jersey Responder

Owner: MARINE SPILL RESPONSE CORP, HERNDON, VA. More information available from US FCC via Universal Licensing System and Coast Guard Vessel Documentation Center.

Last reported at 2015-Apr-21 03:22 UTC. Time now 2015-Apr-21 11:35 UTC.
Position N 40°32' W 074°15'.

; draft 4 m.

Type: Pollution control. MMSI: 366594000.

Date/timePositionNaut miles runAvg speedWind from/ knotsBaromVisibWave heightAir tempDewpointWater temp
2015-Apr-21 03:22N 40°32' W 074°15'0 0.0
2015-Apr-21 02:13N 40°32' W 074°15'0 0.0
2015-Apr-21 00:13N 40°32' W 074°15'0 0.0
2015-Apr-20 20:12N 40°32' W 074°15'0 0.0
2015-Apr-20 09:33N 40°32' W 074°15'0 0.0
2015-Apr-20 04:30N 40°32' W 074°15'0 0.0
2015-Apr-20 03:06N 40°32' W 074°15'0 0.0
2015-Apr-19 23:24N 40°32' W 074°15'0 0.0
2015-Apr-19 21:06N 40°32' W 074°15'0 0.0
2015-Apr-18 02:15N 40°32' W 074°15'0 0.0
2015-Apr-18 01:30N 40°32' W 074°15'0 0.0
2015-Apr-16 19:24N 40°32' W 074°15'0 0.0
2015-Apr-16 18:31N 40°32' W 074°15'4 3.6
2015-Apr-16 17:27N 40°35' W 074°12'6 6.3
2015-Apr-16 16:33N 40°39' W 074°07'9 9.2
2015-Apr-16 15:33N 40°47' W 074°00'1 1.1
2015-Apr-16 14:33N 40°45' W 074°01'9 8.6
2015-Apr-16 13:32N 40°39' W 074°08'9 0.9
2015-Apr-16 04:05N 40°32' W 074°15'0 0.0
2015-Apr-14 19:07N 40°32' W 074°15'0 0.0
2015-Apr-14 18:31N 40°32' W 074°15'0 0.0
2015-Apr-14 17:25N 40°32' W 074°15'0 0.0
2015-Apr-14 16:31N 40°32' W 074°15'0 0.0
2015-Apr-14 15:31N 40°32' W 074°15'0 0.0
2015-Apr-14 10:13N 40°32' W 074°15'0 0.0
2015-Apr-14 08:22N 40°32' W 074°15'0 0.0
2015-Apr-14 07:13N 40°32' W 074°15'0 0.0
2015-Apr-14 06:25N 40°32' W 074°15'0 0.0
2015-Apr-14 05:31N 40°32' W 074°15'0 0.0
2015-Apr-14 04:10N 40°32' W 074°15'0 0.0
2015-Apr-14 03:28N 40°32' W 074°15'0 0.0
2015-Apr-14 02:32N 40°32' W 074°15'0 0.0
2015-Apr-14 01:13N 40°32' W 074°15'0 0.0
2015-Apr-14 00:31N 40°32' W 074°15'0 0.0
2015-Apr-13 12:22N 40°32' W 074°15'0 0.0
2015-Apr-12 17:28N 40°32' W 074°15'0 0.0
2015-Apr-12 05:19N 40°32' W 074°15'0 0.0
2015-Apr-11 16:25N 40°32' W 074°15'0 0.0
2015-Apr-11 03:22N 40°32' W 074°15'  

Dump ship's entire track history